deutsch   english   español   français   latvian

10. Odenwald-Bike-Marathon: Hirschberg a.d. Bergstraße OT Leutershausen, 21.09.2008
--- liste de résultats par catégories ---

Recherche dans toutes les SI résultatsexploitation statistiqueparticipants (total): 462

parcours K: MTB-Kurzstrecke (30.00 km)

participants: 169
position
up down
dossard
up down
nom
up down
 club
up down
 temps  vitesse 
km/h
retardretard
(%)
certificat
Senioren I (MTB-Kurzstrecke, 30.00 km)
1551 KLEIN, Matthias bike-special-parts.de 01:21:5621.970:00:000.00 % 
2582 SCHMIDT, Carsten Team Zweirad Klein-Bielstein/ Co 01:25:0121.170:03:053.76 % 
3496 ANSPACH, Dirk Kaiserslautern 01:28:0220.450:06:067.45 % 
4415 SCHRAMM, Mike rSG Würzburg 01:28:0320.440:06:077.47 % 
5540 HUCKELE, Andreas Triathlon Wetterau 01:29:0820.190:07:128.79 % 
6570 PLÖßER, Karsten Melibokus-Biker 01:30:1419.950:08:1810.13 % 
7573 RAPOLDER, Sandor SK8&BMX Verein Darmstadt 01:30:2719.900:08:3110.39 % 
8450 WEDLER, Mario Team Berner.cc 01:31:4519.620:09:4911.98 % 
9442 HEILMANN, Erich rSG Würzburg 01:33:1019.320:11:1413.71 % 
10575 REUTER, Christian Essen 01:34:5018.980:12:5415.74 % 
11584 SCHNEIDER, Daniel TuS Treis-Karden 01:35:1618.890:13:2016.27 % 
12502 BECK, Mike Bergziege Racing Team 01:35:4818.790:13:5216.92 % 
13526 GESCHWILL, Tobias Brühl 01:36:0218.740:14:0617.21 % 
14562 MACKUS, Thomas Oberursel 01:36:4518.600:14:4918.08 % 
15593 STEPHAN, Dirk Ladenburg 01:37:4918.400:15:5319.39 % 
16463 THANHEISER, Uwe Mannheim 01:38:3518.260:16:3920.32 % 
17479 SPIEß, Nikolai Düsseldorf 01:38:3718.250:16:4120.36 % 
18436 STIHLER, Richard Mannheimds 01:39:4618.040:17:5021.77 % 
19416 SAM, Thorsten rhein-Neckar-Racing Team OBM 01:40:4817.860:18:5223.03 % 
20485 HECHLER, Thomas TG Rimbach 01:41:5117.670:19:5524.31 % 
21581 SCHLAGOWSKY, Gerrit Nussloch 01:44:1217.270:22:1627.18 % 
22490 BAUER, Andreas Barbarinas Mannheim 01:44:3117.220:22:3527.56 % 
23427 LEIB, Siegfried Gem. -Rad Otzberg 01:44:5617.150:23:0028.07 % 
24451 MAYER, Tobias Keller-Kinder-Racing 01:47:2616.750:25:3031.12 % 
25547 KIRSCHBAUM, Karsten Harxheim 01:50:2516.300:28:2934.76 % 
26598 WEINMANN, Dieter Heidelberg 01:51:0816.200:29:1235.64 % 
27420 SCHRÜFER, Dirk Alsbach 01:51:4616.100:29:5036.41 % 
28535 HERTEL, Dirk Schriesheim 01:51:5216.090:29:5636.53 % 
29475 BONAVENTURA, Wolfgang DDDAKK 01:54:5415.670:32:5840.24 % 
30583 SCHMITT, Frank Schriesheim 01:55:5115.540:33:5541.40 % 
31480 JUNGJOHANN, Lars Düsseldorf 01:57:3215.310:35:3643.45 % 
32492 RUMBAK, Torsten Radstall 02:00:0215.000:38:0646.50 % 
33445 CHRIST, Jochen Mückenlock 02:00:0714.990:38:1146.60 % 
34557 LEHR, Uwe Lautertal 02:00:2114.960:38:2546.89 % 
35497 AUBERT, Ronan TSV Triathlon Viernheim 02:02:4014.670:40:4449.72 % 
36426 MEDROS, Marco Gem. -Rad Otzberg 02:03:1214.610:41:1650.37 % 
37447 DJURITSCHEK, Frank Team Bike Technik 02:04:1614.480:42:2051.67 % 
38558 LENZ, Carl Friedrich Lorsch 02:05:2614.350:43:3053.09 % 
39531 GÄRTNER, Alexander Einhausen 02:05:2914.340:43:3353.15 % 
40510 BROKATE, Dirk Frankfurt 02:05:3414.340:43:3853.25 % 
41580 SCHEIBINGER, Markus Taunusstein 02:06:1514.260:44:1954.09 % 
42525 GANZ, Gunter Flörsheim 02:10:5413.750:48:5859.76 % 
43528 GREENE, Michael Lautertal 02:11:1813.710:49:2260.25 % 
44428 STORK, Martin Kellerkinder Racing Team 02:23:1712.561:01:2174.88 % 
45429 WEIS, Dirk Kellerkinder Racing Team 02:23:2212.561:01:2674.98 % 
46591 STAMM, Ingo Wiesloch 02:24:4212.441:02:4676.61 % 
47498 BARISIC, SIMON WILHELMSFELD 02:32:5011.781:10:5486.53 % 
48443 MAYER, Thorsten Viernheim 02:47:1310.761:25:17104.09 % 
49478 RHEIN, Kai Radsport-Viernheim 02:52:2110.441:30:25110.35 % 
50559 LOMMEL, Mark Plankstadt 02:53:2510.381:31:29111.66 % 
position
up down
dossard
up down
nom
up down
 club
up down
 temps  vitesse 
km/h
retardretard
(%)
certificat

Senioren II (MTB-Kurzstrecke, 30.00 km)
1536 HINSBERGER, Harald Marpingen 01:25:0421.160:00:000.00 % 
2454 KOFFLER, Alfred Kämpfelbach 01:34:5918.950:09:5511.66 % 
3594 STUPPART, Ralf www.melibokus-biker.de 01:35:5518.770:10:5112.75 % 
4538 HOFMANN, Matthias RV-TTC Fürstengrund 01:39:2918.090:14:2516.95 % 
5412 KREDEL, Michael Michelstadt 01:39:3018.090:14:2616.97 % 
6576 RIEGLER, Thomas Wiesbaden 01:40:1117.970:15:0717.77 % 
7402 BALL, Markus High Five 01:42:2417.580:17:2020.38 % 
8449 BAUM, Wolfgang Rimbach 01:44:4017.200:19:3623.04 % 
9533 HARTMANN, Ralph Heidelberg 01:46:3916.880:21:3525.37 % 
10589 SIPPEL, Frank Ski Club Heidelberg 01:46:4616.860:21:4225.51 % 
11495 ADAMIEC, Andreas Ski Club Heidelberg 01:46:4616.860:21:4225.51 % 
12453 BÄSSLER, Dirk Chez Manü 01:47:4016.720:22:3626.57 % 
13487 SCHULTE-KLENFELD, Jörg Heidelberg 01:48:4416.550:23:4027.82 % 
14596 UEBERHOFEN, Armin Cedros Delux 01:51:3416.130:26:3031.15 % 
15595 SWIERS, Norbert Heidelberg 01:53:3315.850:28:2933.48 % 
16464 SCHWARZ, Roger Mannheim 01:54:5915.650:29:5535.17 % 
17477 DEBLITZ, Christian Heppenheim 01:55:3915.560:30:3535.95 % 
18517 EITER, Alex Womt 01:55:5115.540:30:4736.19 % 
19403 SPIEß, Karsten TG Heddesheim 01:56:2215.470:31:1836.79 % 
20574 RAUER, Markus Frankfurt 01:56:3415.440:31:3037.03 % 
21465 SCHMITT, Frank Abtsteinach 01:57:0215.380:31:5837.58 % 
22577 RIEHL, Rüdiger Pfungstadt 01:58:4915.150:33:4539.67 % 
23569 OLF, Markus Groß-Rohrheim 01:59:0815.110:34:0440.05 % 
24469 SCHULTE, Volker SC Furtwangen 02:01:3514.800:36:3142.93 % 
25586 SCHULER, Bernhard Mannheim 02:01:3714.800:36:3342.97 % 
26513 COOSEMANS, Thierrry Bad Soden Am Taunus 02:02:2214.710:37:1843.85 % 
27448 SCHWEIGERT, Ralf Hockenheim 02:04:0814.500:39:0445.92 % 
28438 MÜNCH, Michael Mannheim 02:04:2714.460:39:2346.30 % 
29527 GOETTLER, Jens Einhausen 02:04:4114.440:39:3746.57 % 
30444 LENK, Ralf Team Harzblut 02:06:0214.280:40:5848.16 % 
31567 MUSÄUS, Thomas SKG Bauschheim 02:06:0214.280:40:5848.16 % 
32470 BRANDT, Armin TV-Viernheim 02:07:5514.070:42:5150.37 % 
33511 CHARBONNIER, Pierre Frankfurt Am Main 02:11:1313.720:46:0954.25 % 
34588 SCHÜTZ, Peter Schöneck 02:11:3613.680:46:3254.70 % 
35437 WIDDER, Christian Mannheim 02:14:5913.330:49:5558.68 % 
36590 SPAHR, Armin Frankfurt am Main 02:15:0313.330:49:5958.76 % 
37423 KOPPER, Uwe Mannheim 02:15:1513.310:50:1158.99 % 
38522 FRIEDRICH, Volker Pfungstadt 02:15:4213.260:50:3859.52 % 
39435 HÖLTZCKE, Peter Heidelberg 02:15:5313.250:50:4959.74 % 
40489 LAUCK, Michael RIZ CAFE BAR Mannheim 02:16:1213.220:51:0860.11 % 
41422 DUMKE, Michael Mannheim 02:16:5213.150:51:4860.89 % 
42461 ROTHE, Armin Mainz 02:18:4112.980:53:3763.03 % 
43460 STIGLITZ, Michael Östringen 02:20:4112.790:55:3765.38 % 
44532 HALDAN, Klaus Remseck 02:33:3011.731:08:2680.45 % 
45413 KRUG, Holger TSV Viernheim 02:39:2711.291:14:2387.44 % 
46587 SCHWERDTFEGER, Dirk Neckarhausen 02:40:1211.241:15:0888.32 % 
47488 HEILIG, Matthias Ilvesheim 02:51:5210.471:26:48102.04 % 
sans classement
(DSQ)
476 GRÜNER, Michael Weinheim     

Senioren III (MTB-Kurzstrecke, 30.00 km)
1486 SÖRÖS, Wolfgang SJS Bikes Schnaitheim 01:31:0819.750:00:000.00 % 
2549 KLAG, Paul Fahrtwind Senior Team 01:33:1819.290:02:102.38 % 
3537 HINZ, Willy Hirschberg 01:42:5317.500:11:4512.89 % 
4518 EMDE, Michael Darmstadt 01:58:0615.240:26:5829.59 % 
5571 POULIOT, Bernard Heusenstamm 02:05:5914.290:34:5138.24 % 
6554 KOHLER, werner Rimbach 02:19:4112.890:48:3353.27 % 
7503 BERGERT, Udo Landau 02:29:3512.030:58:2764.14 % 
8599 WETTER, Thomas Hirschberg 02:37:3511.421:06:2772.92 % 
9500 BARRANCO-MORALES, Francisco Heusenstamm 02:40:1611.231:09:0875.86 % 
10563 MENDEZ, Oscar Hirschberg 02:59:3610.021:28:2897.07 % 

Herren + Junioren (MTB-Kurzstrecke, 30.00 km)
1455 WEINGARDT, Michael Express Souplesse 01:18:1023.030:00:000.00 % 
2425 GRÜNDEL, Sebastian SG Stern Rastatt 01:18:5422.810:00:440.94 % 
3520 FEININGER, dominik rsv-pfaffenhuber 01:18:5522.810:00:450.96 % 
4440 KOPF Team-Speedzone.de 01:21:5521.970:03:454.80 % 
5452 HELZLE, Benjamin Team Fire Bike 01:23:3821.520:05:286.99 % 
6462 HARTMANN, Andreas RSV-Pfaffenhuber 01:23:4121.510:05:317.06 % 
7430 JORZIK, Thomas Team Unicorn 01:24:2921.310:06:198.08 % 
8401 BECKER, André TV Moßbach 01:26:3720.780:08:2710.81 % 
9524 FÜRLINGER, Christoph KTM-Mountainbiker.at 01:28:2020.380:10:1013.01 % 
10419 DIETER, Jens Seeheim 01:29:0920.190:10:5914.05 % 
11572 PRIEß, Simon Heidelberg 01:29:4020.070:11:3014.71 % 
12561 MAAHS, Jochen Radsport Schneider Neunkirchen 01:34:2319.070:16:1320.75 % 
13471 SPETHER, Achim AC Weinheim 01:34:5718.960:16:4721.47 % 
14553 KNAUF, Benjamin Team Magges Bikescheune 01:35:4718.790:17:3722.54 % 
15418 WINNEWISSER, Oliver TSV Schönau 01:40:5117.850:22:4129.02 % 
16411 BLUM, Daniel Edingen 01:48:5716.520:30:4739.38 % 
17491 SAUER, Felix Seeheim 01:52:5815.930:34:4844.52 % 
18493 GEIß, Sascha Radstall 01:54:2615.730:36:1646.40 % 
19521 FERTIG, Jonathan Bensheim 01:57:2615.330:39:1650.23 % 
20564 MONDANI, Jerome Kiedrich 02:03:1214.610:45:0257.61 % 
21545 KASTEINECKE, Christoph Aschaffenburg 02:05:5014.300:47:4060.98 % 
22459 ROMBACH, Valentin Sport+Bike+Dster Kirchzarten 02:08:4713.980:50:3764.75 % 
23433 HÖLTZCKE, Mistral Heidelberg 02:11:5513.640:53:4568.76 % 
24439 PETER, Tobias Team Bike max 02:11:5613.640:53:4668.78 % 
25434 HÖLTZCKE, Robin Heidelberg 02:15:5113.250:57:4173.80 % 
26457 FRIEDRICH, Raphael Andre Drahtesel-online.de 02:16:5613.150:58:4675.18 % 
27414 KRUG, Tanis TSV Viernheim 02:39:2711.291:21:17103.99 % 

Jugend männlich (MTB-Kurzstrecke, 30.00 km)
1421 MAGER, Christian SSG Bensheim 01:15:0024.000:00:000.00 % 
2424 DIETER, Jan SSG Bensheim 01:16:2623.550:01:261.91 % 
3541 HÜGEL, Frans Radsport Rhein Necker 01:23:4421.500:08:4411.64 % 
4473 PAUL, Ingo AC Weinheim 01:28:5320.250:13:5318.51 % 
5509 BRECHT, Marvin Karben 01:37:0918.530:22:0929.53 % 
6484 ENDER, Conrad Schriesheim 01:37:3218.460:22:3230.04 % 
7472 BISDORF, Lukas AC Weinheim 01:42:3417.550:27:3436.76 % 
8543 JAUGSTETTER, Fabian Weinheim 01:50:4616.250:35:4647.69 % 
9512 CHLADEK, Jens Tv 1893 e.v. Viernheim 02:06:1114.260:51:1168.24 % 
10508 BRANDT, Nikolai TV-Viernheim 02:52:2110.441:37:21129.80 % 

Seniorinnen (MTB-Kurzstrecke, 30.00 km)
1458 RENZ, Nicole Express Souplesse 01:50:4016.270:00:000.00 % 
2516 DR.DIPPEL, Christiane TC Bensheim 01:51:1616.180:00:360.54 % 
3431 FEHRINGER, Sandra Freiburg 01:57:0315.380:06:235.77 % 
4474 MARX, Barbara Hirschberg 01:57:5615.260:07:166.57 % 
5446 SAUER-CHRIST, Beate Neckargemünd 02:00:0514.990:09:258.51 % 
6556 KUNZE, Susanne Gaiberg 02:00:4014.920:10:009.04 % 
7530 GUTJAHR, Susanne MTV Kronberg 02:12:5213.550:22:1220.06 % 
8592 STAUB, Monika Marpingen 02:18:3212.990:27:5225.18 % 
9546 KERN, Heidrun Mainz 02:19:0412.940:28:2425.66 % 
10456 FRIEDRICH, Christiane Drahtesel-online.de 02:33:1211.750:42:3238.43 % 
11483 SCHÖNLEBEN, Rebecca Schriesheim 02:43:4211.000:53:0247.92 % 
12548 KITZMANN, Sabine WSV Speyer 02:55:3210.251:04:5258.61 % 
13482 RICHTER, Birgit Schriesheim 03:00:439.961:10:0363.30 % 
14585 SCHNELLBÄCHER, Ulrike Team-drahteselonline.de 03:01:069.941:10:2663.64 % 

Damen + Jugend + Junior. (MTB-Kurzstrecke, 30.00 km)
1441 BRÖCKL, Stephanie Freiburg 01:41:1517.780:00:000.00 % 
2481 EITEL, Katharina RRC Endspurt Mannheim 01:50:4016.270:09:259.30 % 
3523 FRYSZER-LIEBEL, Franca Darmstadt 01:55:2615.590:14:1114.01 % 
4494 EICHLER, Julia OBM Team 01:57:0415.380:15:4915.62 % 
5432 MEYER, Ronel Darmstadt 01:57:5115.270:16:3616.40 % 
6417 BIBO, Anja Kiedrich 02:03:1014.610:21:5521.65 % 
7555 KONECZNY, Sonja Mannheim 02:16:2213.200:35:0734.68 % 
8529 GUNKEL, Katharina Michelstadt 02:20:3912.800:39:2438.91 % 
9568 NAGEL, Stephanie Erzhausen 03:06:329.651:25:1784.23 % 
10539 HOLUBOVA, Katerina Wiesbaden 04:08:547.232:27:39145.83 % 

parcours O: MTB-Mittelstrecke (60.00 km)

participants: 197
position
up down
dossard
up down
nom
up down
 club
up down
 temps  vitesse 
km/h
retardretard
(%)
certificat
Senioren I (MTB-Mittelstrecke, 60.00 km)
1227 MUNZ, uli ribike-blackforest 02:27:1324.450:00:000.00 % 
2321 KNOPF, Stefan Team Firebike 02:42:0522.210:14:5210.10 % 
3217 LIEBE, Markus Darmstadt 02:47:3621.480:20:2313.85 % 
4340 IMLING, Gabriel 29er kona AS SPORT 02:51:4720.960:24:3416.69 % 
5357 DYER, Richard Team Inselaffen 02:52:4320.840:25:3017.32 % 
6331 FRIEDRICH, Michael Drahtesel-online.de 02:52:5320.820:25:4017.43 % 
7214 LANGENECKER, Claus RSV Pfaffenhuber Mannheim e.V. 02:52:5520.820:25:4217.46 % 
8295 SCHNEIDER, Holger MTBC-Wehrheim 02:59:0820.100:31:5521.68 % 
9346 FRIEDRICH, Matthias Berner 03:01:4119.810:34:2823.41 % 
10354 SCHMIDT, Stefan Www.Hasepaad hot wheelers.de 03:03:5019.580:36:3724.87 % 
11339 MARQUARDT, André Bretten 03:06:1419.330:39:0126.50 % 
12221 MARKOVIC, Slobodan Griesheim 03:06:1519.330:39:0226.51 % 
13235 OSMER, Mark Freinsheim 03:10:1018.930:42:5729.17 % 
14179 FEINDLER, Stefan Königstuhl-Bikers 03:11:1718.820:44:0429.93 % 
15363 SPERLICH, Uwe Polsstsone 98 03:13:3518.600:46:2231.50 % 
16152 BALKOW, Gunnar Mannheim 03:17:5518.190:50:4234.44 % 
17324 ASCHMONEIT, Florian rsc-Edelkerb/genevie.de 03:21:4517.840:54:3237.04 % 
18332 FAHINGZ, Frank Evlenbach 03:22:0117.820:54:4837.22 % 
19349 LÜDTKE, Christian Rhein Neckar Racing 03:22:0817.810:54:5537.30 % 
20189 HAMMANN, Jörg Griesheim 03:26:0617.470:58:5340.00 % 
21161 BLETZER, Ralf SG Leutershausen 03:26:0617.470:58:5340.00 % 
22310 PFEIFER, Markus TC Chaos Viernhain 03:27:3217.351:00:1940.97 % 
23162 BORN, Stephan Mannheim 03:28:2517.271:01:1241.57 % 
24294 WEHNER, Sumio Luth. Wittenberg 03:30:5717.071:03:4443.29 % 
25309 SINGER, Reiner Schriesheim 03:31:4617.001:04:3343.85 % 
26358 WAGNER, Thomas DAV Weinheim 03:33:5516.831:06:4245.31 % 
27297 PIETSCH, Felix Hefespoiler 03:39:3016.401:12:1749.10 % 
28230 NEUBAUER, Thomas Tautz Druckluft GmbH 03:39:5916.361:12:4649.43 % 
29206 KOCH, Jan Mannheim 03:40:0716.351:12:5449.52 % 
30330 KALINKAT, Gregor melibokus-Biker.de 03:41:4016.241:14:2750.57 % 
31334 EBERT, Ewwi LT Weinheim 03:42:3716.171:15:2451.22 % 
32154 BAUER, Thomas Weinheim 03:45:4615.951:18:3353.36 % 
33181 FLEISCHHACKER, Rainer Ilvesheim 03:48:0015.791:20:4754.87 % 
34234 NUNHEIM, Roland Schriesheim 03:49:1915.701:22:0655.77 % 
35368 HUBERT, Clemens BMD 03:49:4515.671:22:3256.06 % 
36312 WENZEL, Mathias Heidelberg 03:49:4815.671:22:3556.10 % 
37267 SIEBER, Michel Team Hefespoiler 03:53:1315.441:26:0058.42 % 
38256 SCHLAFMANN, Lutz Hirschberg 03:53:3615.411:26:2358.68 % 
39225 MICHALSKE, Andreas VfR Waldkatzenbach 03:53:4315.401:26:3058.76 % 
40204 KILGER, Christian Schwetzingen 03:54:0415.381:26:5158.99 % 
41255 SCHINDWOLF, Uwe MassageHamburg.net 03:58:0815.121:30:5561.76 % 
42168 BÜTTNER, Timo Team-drahteselonline.de 03:58:1715.111:31:0461.86 % 
43288 WITTEN, Jan Zf-Kupplungstechnik 04:03:1114.801:35:5865.19 % 
44246 RICHTER, David Loerrach 04:05:1514.681:38:0266.59 % 
45175 ECKSTEIN, Matthias RAS-RACING TEAM 04:05:5314.641:38:4067.02 % 
46266 SEBRECHT, Stefan Wiesbaden 04:07:4714.531:40:3468.31 % 
47287 WINNEMÖLLER, Jost Bensheim 04:18:2813.931:51:1575.57 % 
48241 PRUSCHA, Falk Rastatt 04:21:1913.781:54:0677.50 % 
49229 NETTE, Matthias Reinheim 04:22:1213.731:54:5978.10 % 
50276 STOTZ, Thomas Eppelheim 04:22:1313.731:55:0078.12 % 
position
up down
dossard
up down
nom
up down
 club
up down
 temps  vitesse 
km/h
retardretard
(%)
certificat
51157 BECHT, Jürgen Jockgrim 04:25:0313.581:57:5080.04 % 
52156 BECHLE, Andreas Bühl 04:27:0213.481:59:4981.39 % 
53306 SCHÜNEMANN, Ronny Cycle-Planet 04:44:5412.642:17:4193.52 % 
54248 RINK, markus The Flying Bembel Racers 04:45:5412.592:18:4194.20 % 
55158 BECKER, martin The Flying Bembel Racers 04:45:5512.592:18:4294.21 % 
56218 LÖCHNER, Sven Darmstadt 04:51:3612.352:24:2398.08 % 
57201 KARCIC, Dzevad Frankfurt 05:16:2211.382:49:09114.90 % 
58244 RAMMINGER, Markus Trebur 05:16:2211.382:49:09114.90 % 
sans classement
(DNF)
242 PTICAR, Andreas Radsport Rhein Neckar e.V.     
sans classement
(DNF)
322 DEHN radsport Rhein Necker     

Senioren II (MTB-Mittelstrecke, 60.00 km)
1198 BÖHM, Ralf Scott Ream Heilemann 02:36:5622.940:00:000.00 % 
2184 GROSSMANN, Hubertus GHOST Racing Team 02:46:4521.590:09:496.26 % 
3262 SCHNEIDER, Ralph SF Triathlon Roßdorf 02:50:1721.140:13:218.51 % 
4222 MARQUARDT, Dieter Sportfreunde Lauffen 02:52:3520.860:15:399.97 % 
5174 ECKEL, Markus SSG Bensheim 02:53:2520.760:16:2910.50 % 
6304 KÖHLER, Andreas SV Kirschhausen 02:55:4720.480:18:5112.01 % 
7308 WEIDNER, Ubi Blutsventje BSN PIRATE TEAM 02:56:0920.440:19:1312.25 % 
8192 HELMLING, Klaus Peter mb-rad-sport.de 02:58:4320.140:21:4713.88 % 
9236 PABST, Mike MTB Team Harzblut 02:58:5220.130:21:5613.98 % 
10207 KRONMÜLLER, Volker TB Cannstatt 03:01:4019.820:24:4415.76 % 
11282 WEIßENBERGER, Thomas Oberkirch 03:03:3819.600:26:4217.01 % 
12328 DUFEL, Thomas Sport+Bike+Hoster Kirchzarten 03:04:0219.560:27:0617.27 % 
13302 FABIAN, Markus AC Weinheim 03:04:2719.520:27:3117.53 % 
14285 WILLER, Klaus LSV 07 LU 03:06:2019.320:29:2418.73 % 
15190 SCHNIEPP, Stefan MEGA-BIKE Stuttgart 03:07:3519.190:30:3919.53 % 
1616 DELLBRÜGGE, Karsten TV Mußbach 03:12:1618.720:35:2022.51 % 
17344 SIEGEL, Jörg Kiedrich 03:13:5318.570:36:5723.55 % 
18199 KAINZ, Günther Pfungstadt 03:14:0118.560:37:0523.63 % 
19167 BÜHLER, frank ribike-blackforest 03:15:2918.420:38:3324.56 % 
20173 DWORACEK, Udo mentaliban 03:16:2918.320:39:3325.20 % 
21200 KAISER, Joachim Nauheim 03:16:3118.320:39:3525.22 % 
22188 HAHN, Thilo SC Lanzenhain 03:16:5018.290:39:5425.42 % 
23280 WANKA, Michael Hochheim am Main 03:17:4718.200:40:5126.03 % 
24325 LIMBACH, Andreas Bietigheim-Biss 03:18:0518.170:41:0926.22 % 
25275 STOCKHAUSEN, Volker Meckenheim 03:18:5518.100:41:5926.75 % 
26271 SPANGENBERG, Dirk Weinheim 03:19:4218.030:42:4627.25 % 
27338 WIRTH, Markus RSC Neustadt 03:20:0817.990:43:1227.53 % 
28219 MALL, Michael Meckesheim 03:22:0317.820:45:0728.75 % 
29155 BAUM, Ingo Pfungstadt 03:23:0717.720:46:1129.43 % 
30209 KUCH, Dieter Bensheim 03:25:2117.530:48:2530.85 % 
31342 MÜLLER, Werner Heidelberg 03:28:3117.260:51:3532.87 % 
32359 GERBIG, Jürgen Bobenheim-Roxhering 03:30:4717.080:53:5134.31 % 
33224 MAURER, wolfgang TB 09 Dilsberg 03:31:0017.060:54:0434.45 % 
34176 EHRENHOFER, Arno Bad Camberg 03:31:2617.030:54:3034.73 % 
35254 SCHIFFLER, Ansgar BBS Bingen 03:31:2817.020:54:3234.75 % 
36301 LAX, Andreas Bosch Diesel 03:33:3816.850:56:4236.13 % 
37366 DEXHEIMER, Markus Neckargemünd 03:37:3516.551:00:3938.65 % 
38211 KUNZE, Matthias Heidelberg 03:39:0716.431:02:1139.62 % 
39226 WEBER, Mike hasepaadhotwheelers 03:40:2616.331:03:3040.46 % 
40345 GREDEL, Ralf Ketsch 03:40:3216.321:03:3640.53 % 
41374 KOCH, Matthias Jump 03:41:5816.221:05:0241.44 % 
42370 MELCHERS, Alexander BMD 03:41:5916.221:05:0341.45 % 
43281 WEBER, Philipp Gemeinderad Otzberg 03:42:0216.211:05:0641.48 % 
44311 LAUCK, Andreas Heddesheim 03:44:0316.071:07:0742.77 % 
45305 HILFENHAUS, Klaus LSV 07 LU 03:44:1816.051:07:2242.93 % 
46249 RINNE, Frank Wiesenbach 03:44:4816.011:07:5243.25 % 
47361 HERRMANN, Benedikt Schriesheim 03:49:3015.691:12:3446.24 % 
48367 NEUMAN, Jurgen RSC Neustadt 03:49:3415.681:12:3846.28 % 
49369 GORA, Alexander BMD 03:49:3515.681:12:3946.29 % 
50153 BARTSCH, Thomas Alexander Mittenwalde 03:52:5015.461:15:5448.36 % 
position
up down
dossard
up down
nom
up down
 club
up down
 temps  vitesse 
km/h
retardretard
(%)
certificat
51203 KENNEL, Wolfgang Lampertheim 03:54:2015.361:17:2449.32 % 
52265 SCHÜßLER, Stephan S-H-B-C 04:05:0414.691:28:0856.16 % 
53252 SANDMAIER, Jochen Heidelberg 04:07:2314.551:30:2757.64 % 
54300 NÜTZEL, Rainer Kandel 04:09:2014.441:32:2458.88 % 
55286 WILLIAMSON, Peter Schriesheim 04:14:3614.141:37:4062.23 % 
56208 KRÜGER, Rainer Jockgrim 04:17:5213.961:40:5664.32 % 
57270 SMALE, Nigel Bruchsal 04:19:5313.851:42:5765.60 % 
58202 KELTERER, Martin Ötigheim 04:21:1913.781:44:2366.51 % 
59182 GANZERT, Willi Meli-Biker Bickenbach 04:22:2813.721:45:3267.25 % 
60371 SCHULTZ, Evan SAP 04:26:3313.511:49:3769.85 % 
61178 ELVERS, Thomas Bensheim 04:27:1513.471:50:1970.30 % 
62186 GUIRE, paul bensheim 04:45:5812.592:09:0282.22 % 
63298 KOPPENHAGEN, Norbert Whm 04:52:4512.302:15:4986.54 % 
64353 JACOBS, Peter Mannheim 05:08:0111.692:31:0596.27 % 
sans classement
(DSQ)
326 RAHMANN, Dirk Homburg     

Senioren III (MTB-Mittelstrecke, 60.00 km)
1220 MANNHERZ, Hartmut Karlsruhe 03:05:2719.410:00:000.00 % 
2269 SILBERER, Gerhard TV Friesenheim 03:06:4019.290:01:130.66 % 
3327 SCHULZ, Jürgen Woba Radstudio 03:09:0319.040:03:361.94 % 
4329 ROMBACH, Roland Sport+Bike+Hoster Kirchzarten 03:16:4318.300:11:166.08 % 
5277 STUMPF, Karl VfR Waldkatzenbach 03:27:5117.320:22:2412.08 % 
6263 SCHNELLBÄCHER, Rolf Team-drahteselonline.de 03:28:1517.290:22:4812.29 % 
7293 BANNERT, Robert Eddingen-Nerkarshausen 03:31:5316.990:26:2614.25 % 
8264 SCHNURR, Lukas www.melibokus-biker.de 03:34:1416.800:28:4715.52 % 
9315 SCHUMAYER, Gerhard Heidelberg 03:35:4316.690:30:1616.32 % 
10159 BECKER, Stephan Roßdorf 03:38:3216.470:33:0517.84 % 
11373 POSNAU, Reinhold  03:43:5516.080:38:2820.74 % 
12365 WEDLERD, Reiner Haßloch 03:45:2115.980:39:5421.52 % 
13350 STOLZ, Manfred Essen 03:48:0115.790:42:3422.95 % 
14362 MAURITZ, Peter RST Lübeck 03:50:4415.600:45:1724.42 % 
15210 KUHL, Armin Maintal Radkappen 04:02:5114.820:57:2430.95 % 
16319 KEMPER, Thomas Skiclub Alsfeld 04:04:1614.740:58:4931.72 % 
17243 RAABE, Aklanta-Helmut SCMT 04:07:1914.561:01:5233.36 % 
18187 HAACK, Achim Bad Camberg 04:10:0114.401:04:3434.82 % 
19360 SCHWEIM, Wolfgang Heidelberg 04:17:0414.001:11:3738.62 % 
20272 SPEIDEL, Werner Helmstadt 04:49:5212.421:44:2556.30 % 

Herren + Junioren (MTB-Mittelstrecke, 60.00 km)
1250 ROSE, Ulrich Team AS-Group ergomo/ Rsc 90 Bur 02:27:1724.440:00:000.00 % 
2333 REISER, Marcel Vande-Simplon 02:29:2724.090:02:101.47 % 
3336 FACH, Daniel BQ Racing Team 02:34:1923.330:07:024.78 % 
4364 SCHWEIN, Lars BQ Racing Team 02:35:0223.220:07:455.26 % 
5356 KHOSCHURD, Ramin Wellness Power Trek 02:35:4423.120:08:275.74 % 
6257 SCHLUBKOWSKI, Benjamin RSG Heilbronn 02:44:3021.880:17:1311.69 % 
7303 KUMPF, Alexander AC Weinheim 02:45:1121.790:17:5412.15 % 
8231 NEUMANN, Marc Darmstadt 02:45:3921.730:18:2212.47 % 
9351 PFROMMER, Daniel Team Radax-Aktin 02:46:1321.660:18:5612.86 % 
10352 VOGEL, Ferdinand Zürich 02:47:3521.480:20:1813.78 % 
11278 VOGT, Dominik Friedrich-Hecker-Schule 02:54:3620.620:27:1918.55 % 
12291 EITEL, Florian Rhein-Neckar-Racing 02:57:2320.300:30:0620.44 % 
13261 SCHMITT, Jens Birkenau 03:01:3719.820:34:2023.31 % 
14191 HEIN, volker Heidelberg 03:03:1619.640:35:5924.43 % 
15185 GRUBER, Konrad Backnang 03:08:2719.100:41:1027.95 % 
16323 WEBER, Tobias Www.tripugna.com 03:08:3919.080:41:2228.09 % 
17172 DUSKE, Roland Mofabande 03:11:0818.840:43:5129.77 % 
18166 BUESS, Peter BuessBrothers 03:12:1318.730:44:5630.51 % 
19165 BUESS, Stefan BuessBrothers 03:12:1418.730:44:5730.52 % 
20259 SCHMIDT, Andreas Wriezen 03:12:2418.710:45:0730.63 % 
21372 HOFFMANN, Jah Weinheim 03:21:0817.900:53:5136.56 % 
22273 GRÜN, Simon Gaiberg 03:23:5217.660:56:3538.42 % 
23213 LANG, Christian RSV Pfaffenhuber e.V. 03:24:2817.610:57:1138.83 % 
24348 BREMKE, Harald Heidelberg 03:32:3816.931:05:2144.37 % 
25375 KADOW Heidelberg 03:36:5716.591:09:4047.30 % 
26233 NOWACEK, Martin Schwetzingen 03:37:0916.581:09:5247.44 % 
27260 SCHMIEL, Philipp RAS-RACING TEAM 03:38:5616.441:11:3948.65 % 
28284 WILKE, Micael RAS-RACING TEAM 03:39:0816.431:11:5148.78 % 
29274 STECHELE, Christian Berlin 03:51:5215.531:24:3557.43 % 
30347 KISSNER, Torben RSV-Pfaffenhuber 03:53:2615.421:26:0958.49 % 
31245 RAPP, Christoph Mannheim 03:54:0715.381:26:5058.96 % 
32160 BJÖRN, Kemler Edingen-Neckarhausen 04:00:3214.971:33:1563.31 % 
33212 KÜBLER, Enrico Bernau 04:00:3614.961:33:1963.36 % 
34251 ROUX, Yann München 04:01:2014.921:34:0363.86 % 
35299 BLÄß, Benjamin Radsport-Viernheim 04:05:0214.691:37:4566.37 % 
36215 LEIST, Maximilian Mannheim 04:17:1813.991:50:0174.70 % 
37316 PLATZED, Niko Mainz 04:27:4613.442:00:2981.80 % 
38318 BENDER, Simon Östringen 04:43:2012.712:16:0392.37 % 
39317 NEFF, Niclas Bruchsal 04:43:2012.712:16:0392.37 % 

Damen + Senior. (MTB-Mittelstrecke, 60.00 km)
1314 KEINATH, Silke Lizenz 03:06:3219.300:00:000.00 % 
2292 FABIAN, Konny AC Weinheim 03:18:0518.170:11:336.19 % 
3196 HUNN, Carina RSV Schwalbe Ellmendingen 03:18:2418.150:11:526.36 % 
4343 SCHNURR-KLUMPP, Silvia RSV Staubwalke Haslach 03:20:1117.980:13:397.32 % 
5320 REITMAIER, Katharina Uni Würzburg 03:43:1716.120:36:4519.70 % 
6247 RICHTERS, Dorothee BSN PIRATE TEAM 03:50:3415.610:44:0223.61 % 
7355 BLATTNER, Irmgard TV-Mauer 03:51:1115.570:44:3923.94 % 
8169 BÜTTNER, Tina Team-drahteselonline.de 03:55:4515.270:49:1326.38 % 
9232 NOEVER, Heike TSV Schmiden 04:07:4614.531:01:1432.83 % 
10183 GROMANN, Theresia TSV Schmiden Activity-Racing-Tea 04:09:0914.451:02:3733.57 % 
11341 MARUSCHKA, Katja Uni-Tübingen 04:38:3212.921:32:0049.32 % 
12307 BÖRNER, Sabine Rüsselsheim 04:44:5412.641:38:2252.73 % 
13283 WEYER, Anna Nauheim 04:48:0012.501:41:2854.40 % 

parcours P: MTB-Langstrecke (90.00 km)

participants: 96
position
up down
dossard
up down
nom
up down
 club
up down
 temps  vitesse 
km/h
retardretard
(%)
certificat
Senioren I (MTB-Langstrecke, 90.00 km)
189 HÖFLER, Knut Rhein-Neckar-Racing 03:58:0322.680:00:000.00 % 
247 PLANCKAERT, Hans DE GROENE LINDE C.T. 04:06:4621.880:08:433.66 % 
3107 RENZ, Michael Express Souplesse 04:09:0421.680:11:014.63 % 
462 SOLTEK, Rainer Weinheim 04:12:4721.360:14:446.19 % 
514 BROSCH, Thomas MTB Team Schroeter 04:20:1620.750:22:139.33 % 
699 HARMUTH, Tobias Deidesheim 04:21:4220.630:23:399.93 % 
7119 RUF, Werner Hüttlinger 04:27:0020.220:28:5712.16 % 
898 KOCHENDÖRFER, Michael Team AS Group-ergomo 04:27:2720.190:29:2412.35 % 
932 HUBER, Stefan Exil-Bayern 04:33:4919.720:35:4615.02 % 
1015 CSAKI, Zoltan SG Stern Mannheim 04:34:0719.700:36:0415.15 % 
1154 SCHALOW, Eric Mountains Too 04:36:3219.530:38:2916.17 % 
12BEGER, Ulrich SRS PRO SPORTLER e.V. 04:36:3519.520:38:3216.19 % 
1327 GÖTZ, Jens Radsport Rhein Necker 04:38:3219.390:40:2917.01 % 
1437 KUNKEL, Michael Köln 04:47:5618.750:49:5320.95 % 
15102 KNECHT, Marcel TV Grammmelbach 04:48:3618.710:50:3321.24 % 
1671 TRATTER, Stefan Rheinhessenpower 05:10:4717.381:12:4430.55 % 
1791 LATZ, Michael Meckenheim 05:20:5216.831:22:4934.79 % 
1842 NERGER, Christof Uni Potsdam 05:27:2816.491:29:2537.56 % 
1941 MULARCZYK, Rafael Mannheim 05:31:3916.281:33:3639.32 % 
20BERLINGHOF, Matthias Sandhäuser Jungs 05:56:2915.151:58:2649.75 % 
2175 WEIß, Denis Heidelberg 06:23:5314.072:25:5061.26 % 
sans classement
(DSQ)
82 DE BOS, Eric Westervoort     
sans classement
(DSQ)
36 KRÄUTER, Marco Eppelheim     
sans classement
(DSQ)
69 TAXIS, Sascha Köln     
sans classement
(DNF)
104 SZEKERES, Gäbor Schaafheim     

Senioren II + III (MTB-Langstrecke, 90.00 km)
1105 STAIGER, Oliver Express Souplesse 03:56:2022.850:00:000.00 % 
235 KRAFT, Clemens Cedros de luxe 04:02:4322.250:06:232.70 % 
351 REITZ, Günter TEAM FIREBIKE 04:04:3622.080:08:163.50 % 
496 LIEBSCHER, Joerg MRW Frankfurt 04:15:1421.160:18:548.00 % 
521 FARALISCH, Dirk Outback-Team 04:15:2721.140:19:078.09 % 
673 WALTHER, Marcus fu-wa-team 04:20:1120.750:23:5110.09 % 
795 BECHER, Tilo ARW-Frankfurt 04:36:3419.530:40:1417.02 % 
8296 GÖTTLINGER, Hans DNF 04:43:4719.030:47:2720.08 % 
924 GERBER, Alexander Heidelberg 04:49:4018.640:53:2022.57 % 
10106 SEYFRIED, Wolfgang Heppenheim 04:52:4718.440:56:2723.89 % 
11BAUER, Ralf Schmiedefeld am Rennsteig 05:12:2517.281:16:0532.19 % 
1229 HALTER, Ralph Viernheim 05:18:2416.961:22:0434.72 % 
1325 GRAFMÜLLER, Martin Birkenau-Hornbach 05:29:4016.381:33:2039.49 % 
1476 WENDT, Lothar Weinheim 05:30:0516.361:33:4539.67 % 
1594 KEES, Martin WG Würzburg 05:31:3116.291:35:1140.28 % 
1660 SETZER, Udo Hirschberg 05:33:0216.211:36:4240.92 % 
17APPELSHÄUSER, Jürgen Obrigheim/Pfalz 05:34:2216.151:38:0241.48 % 
1812 BLAEß, Harald Viernheim 05:51:3415.361:55:1448.76 % 
1984 BULL, Wilbert BSM Exhautst 05:54:4815.221:58:2850.13 % 
20112 GEBER, Hort Nieder-Olm 06:08:3314.652:12:1355.94 % 
2144 NIEDERLEIN, Thomas Östringen 06:40:3713.482:44:1769.51 % 
sans classement
(DSQ)
APPEL, walter rsv bad-hersfeld     
sans classement
(DSQ)
118 KRAUSE, Maik WG Gießen     
sans classement
(DSQ)
40 MEYER, Thorsten Mount Staufen     
sans classement
(DSQ)
85 GEÖRG, Berhard Mannheim     
sans classement
(DSQ)
90 HORNUNG, Berhard Walldorf     
sans classement
(DNF)
56 SCHNEIDER, Peter Heidelberg     
sans classement
(DNF)
101 SCHMALZRIDT, Bernd WIESLOCH     
sans classement
(DNF)
100 STEUDTER, Klaus Kaden     

Herren (MTB-Langstrecke, 90.00 km)
1111 UHLIG, Patrick GHOST Racing Team 03:39:2424.610:00:000.00 % 
2GOLDERER, Roland  03:39:2624.610:00:020.02 % 
310 BETTINGER, Matthias Rothaus-Cube MTB Team 03:39:4724.570:00:230.17 % 
4108 KAUFMANN, Markus Team VAUDE-Simplon 03:39:5724.550:00:330.25 % 
564 SPEISEKORN, Alexander MTB-Teck/Team nolte-küchen 03:48:1423.660:08:504.03 % 
645 PFROMMER, Matthias Team Radax-Aktin 03:48:3923.620:09:154.22 % 
7114 ODROSEK, Marc STORCK 03:52:5323.190:13:296.15 % 
846 PFROMMER, Thomas Team Radax-Aktin 03:53:3023.130:14:066.43 % 
974 WEGNER, Sönke FXX Mountain Cycling Team / Frei 03:56:3522.820:17:117.83 % 
10BAUMGÄRTEL, Lutz Eleven-Radon-Racing/RSV Bautzen/ 04:01:0622.400:21:429.89 % 
1155 SCHITTKO, Bernhardt RSV Pfaffenhuber 04:10:1521.580:30:5114.06 % 
1292 LASSAHN, Robert Team Radax (TU München) 04:14:4821.190:35:2416.13 % 
1370 TIM, Vollmar RSG Karlsruhe 04:25:0120.380:45:3720.79 % 
1426 GRZANKA, Bartek Darmstadt 04:25:5820.300:46:3421.22 % 
1517 DERIX, Jonathan TU Dresden 04:26:3020.260:47:0621.47 % 
1620 FAHR, Rico TU Dresden/ Bikeland 262 04:26:3620.260:47:1221.51 % 
1739 MEIER, Gunnar TEAM WEIN / RCW Koblenz Arzheim 04:26:4720.240:47:2321.60 % 
18117 FITTING, Felix WG Gießen 04:27:2620.190:48:0221.89 % 
1913 BLÜMM, Florian RSG Würzburg 04:28:2220.120:48:5822.32 % 
2050 REHBEIN, THOMAS Team Fahrrad Eberhardt Gotha 04:32:3219.810:53:0824.22 % 
2157 SCHULZ, Alexej VfR Waldkatzenbach 04:34:0119.710:54:3724.89 % 
22113 WEILER, Constantin rV 1889 Schweinsfurt 04:35:0919.630:55:4525.41 % 
2386 NEUER, Arnd VfB Schleiz e.V. 04:37:1919.470:57:5526.40 % 
2419 DIETHER, Hannes Heidelberg 04:37:3619.450:58:1226.53 % 
2553 RÖMMELT, Maximilian Wüprzburg 04:38:3619.380:59:1226.98 % 
2649 QUARTI, Michael Offenburg 04:38:5319.360:59:2927.11 % 
2778 HUFGARD, Stefan rSG Würzburg 04:40:3119.251:01:0727.86 % 
2858 SCHÖNEWOLF, Sebastian NPU ESSLINGEN 04:46:3618.841:07:1230.63 % 
2918 DEUSCHLE, André Express Souplesse 04:48:0118.751:08:3731.27 % 
3088 KYNDT, Terence Lingier-Verslungs Beach Bikers 04:58:0118.121:18:3735.83 % 
3177 ZACHER, Benjamin Jenaer Radverein / Radn Roll 04:58:3018.091:19:0636.05 % 
3243 NERGER, Andreas RV Pfeil Tübingen 05:01:1517.931:21:5137.31 % 
3365 STEINCHEN, Burkhard Münster 05:12:1717.291:32:5342.34 % 
3411 BITTLER, Steffen Ingolstadt 05:13:2317.231:33:5942.84 % 
3531 HOFMEYER, Jan Pirate Hamburg 06:44:3513.353:05:1184.40 % 
sans classement
(DSQ)
63 SONNEBORN, Jörg TV Hülsenbusch     
sans classement
(DSQ)
BAIER, Christian DPSG Leutershausen     

Damen + Senior. (MTB-Langstrecke, 90.00 km)
193 KÖGLER, Kerstin Corratec world team 04:47:0218.810:00:000.00 % 
266 STORCH, Daniela RSV Chemnitz 04:55:1618.290:08:142.87 % 
333 HUMPLIK, Caroline TSV Schmiden 05:24:2716.640:37:2513.04 % 
452 RÜTHER, Monika RSV Werl-Wickede 05:36:4916.030:49:4717.34 % 
5103 ECKERT, Mirian Www.team-woba.de/centurian 06:01:3614.931:14:3425.98 %